Time;durP1;ratioP1;P1;durP2;ratioP2;P2;SDS_P1;SDS_P2;PMS_P1;PMS_P2;Temp;Humidity;BMP_temperature;BMP_pressure;BME280_temperature;BME280_humidity;BME280_pressure;Samples;Min_cycle;Max_cycle;Signal;HPM_P1;HPM_P2
2022/03/17 00:01:28;;;;;;;;;3.00;3.00;;;;;18.63;51.32;101835.50;4914564;29;9591;-71
2022/03/17 00:03:53;;;;;;;;;4.50;3.25;;;;;18.63;51.21;101826.69;4916428;29;8918;-71
2022/03/17 00:06:18;;;;;;;;;3.75;2.00;;;;;18.62;51.20;101832.84;4916204;29;8824;-72
2022/03/17 00:08:43;;;;;;;;;2.50;2.50;;;;;18.64;51.11;101828.44;4915569;29;8792;-71
2022/03/17 00:11:09;;;;;;;;;2.50;2.50;;;;;18.64;51.46;101828.44;4915657;29;9572;-71
2022/03/17 00:13:34;;;;;;;;;3.75;3.00;;;;;18.64;51.25;101833.72;4916035;29;8919;-71
2022/03/17 00:16:02;;;;;;;;;3.25;3.25;;;;;18.66;50.89;101835.53;4915440;29;9557;-71
2022/03/17 00:18:28;;;;;;;;;3.50;3.00;;;;;18.63;51.34;101837.28;4916226;29;8793;-71
2022/03/17 00:20:53;;;;;;;;;4.00;3.00;;;;;18.63;51.43;101845.22;4915771;29;9625;-71
2022/03/17 00:23:18;;;;;;;;;5.75;4.00;;;;;18.63;50.80;101853.16;4914978;29;9549;-72
2022/03/17 00:25:44;;;;;;;;;4.00;2.75;;;;;18.64;51.19;101849.59;4915574;29;8820;-72
2022/03/17 00:28:10;;;;;;;;;2.50;2.50;;;;;18.62;51.12;101846.97;4914858;29;8824;-71
2022/03/17 00:30:35;;;;;;;;;3.25;3.25;;;;;18.62;50.94;101839.03;4915878;29;9470;-72
2022/03/17 00:33:00;;;;;;;;;3.00;3.00;;;;;18.63;51.11;101846.06;4915511;29;9819;-72
2022/03/17 00:35:35;;;;;;;;;3.50;3.50;;;;;18.63;51.17;101842.56;4914877;29;9080;-72
2022/03/17 00:38:03;;;;;;;;;3.00;3.00;;;;;18.62;50.96;101843.44;4912319;29;8833;-72
2022/03/17 00:40:30;;;;;;;;;2.50;2.50;;;;;18.62;51.10;101846.09;4915897;29;9703;-72
2022/03/17 00:42:56;;;;;;;;;4.25;4.00;;;;;18.59;50.89;101844.31;4909583;29;9712;-72
2022/03/17 00:45:22;;;;;;;;;4.00;4.00;;;;;18.62;50.98;101846.09;4915402;29;9991;-72
2022/03/17 00:47:47;;;;;;;;;5.00;5.00;;;;;18.61;51.31;101844.31;4915475;29;11508;-72
2022/03/17 00:50:13;;;;;;;;;0.75;0.75;;;;;18.61;51.12;101844.31;4914385;29;9933;-72
2022/03/17 00:52:38;;;;;;;;;3.00;3.00;;;;;18.60;50.97;101843.41;4915599;29;8919;-71
2022/03/17 00:55:06;;;;;;;;;3.00;3.00;;;;;18.59;51.36;101843.44;4915134;29;8800;-73
2022/03/17 00:57:32;;;;;;;;;3.75;3.75;;;;;18.59;51.21;101844.31;4914812;29;8804;-72
2022/03/17 00:59:57;;;;;;;;;4.75;3.50;;;;;18.61;51.11;101854.88;4915053;29;9726;-72
2022/03/17 01:02:22;;;;;;;;;4.00;4.00;;;;;18.62;51.38;101856.66;4914761;29;8867;-71
2022/03/17 01:04:48;;;;;;;;;3.00;3.00;;;;;18.59;51.19;101854.91;4914620;29;8812;-71
2022/03/17 01:07:13;;;;;;;;;3.75;2.75;;;;;18.63;51.02;101861.09;4914480;29;8836;-71
2022/03/17 01:09:39;;;;;;;;;4.00;4.00;;;;;18.58;51.13;101852.22;4915078;29;8831;-72
2022/03/17 01:12:04;;;;;;;;;3.00;3.00;;;;;18.58;51.20;101855.75;4913905;29;8840;-71
2022/03/17 01:14:30;;;;;;;;;3.00;3.00;;;;;18.57;51.21;101850.47;4915320;29;8831;-71
2022/03/17 01:16:56;;;;;;;;;3.75;3.75;;;;;18.57;51.23;101853.09;4914850;29;9557;-72
2022/03/17 01:19:21;;;;;;;;;3.00;3.00;;;;;18.59;51.40;101852.25;4914306;29;8827;-71
2022/03/17 01:21:49;;;;;;;;;4.50;4.50;;;;;18.55;51.33;101857.50;4914748;29;8816;-70
2022/03/17 01:24:16;;;;;;;;;4.00;4.00;;;;;18.56;51.14;101861.94;4914192;29;8839;-71
2022/03/17 01:26:42;;;;;;;;;4.50;4.50;;;;;18.58;51.41;101868.09;4914631;29;9757;-71
2022/03/17 01:29:07;;;;;;;;;5.00;5.00;;;;;18.57;51.17;101861.94;4914469;29;10678;-71
2022/03/17 01:31:32;;;;;;;;;3.25;3.25;;;;;18.57;51.37;101858.38;4913865;29;9807;-71
2022/03/17 01:33:58;;;;;;;;;3.00;3.00;;;;;18.60;51.40;101864.56;4914570;29;8823;-70
2022/03/17 01:36:24;;;;;;;;;6.00;5.50;;;;;18.55;51.39;101868.09;4911712;29;8842;-71
2022/03/17 01:38:49;;;;;;;;;2.25;2.25;;;;;18.54;51.39;101869.84;4913430;29;8851;-71
2022/03/17 01:41:17;;;;;;;;;5.25;4.00;;;;;18.56;51.45;101876.00;4914341;29;8816;-71
2022/03/17 01:43:43;;;;;;;;;4.25;3.25;;;;;18.57;51.43;101883.09;4914728;29;8797;-71
2022/03/17 01:46:09;;;;;;;;;8.00;6.25;;;;;18.57;51.31;101882.19;4913386;29;9851;-70
2022/03/17 01:48:35;;;;;;;;;6.25;6.25;;;;;18.54;51.31;101883.06;4914501;29;8804;-71
2022/03/17 01:51:00;;;;;;;;;5.75;5.50;;;;;18.54;51.68;101884.81;4914320;29;9827;-70
2022/03/17 01:53:25;;;;;;;;;5.00;5.00;;;;;18.55;51.44;101889.25;4913315;29;8947;-71
2022/03/17 01:55:51;;;;;;;;;5.00;5.00;;;;;18.55;51.57;101898.06;4914327;29;8840;-70
2022/03/17 01:58:17;;;;;;;;;5.00;5.00;;;;;18.55;51.74;101913.06;4914050;29;8792;-70
2022/03/17 02:00:46;;;;;;;;;6.50;5.50;;;;;18.53;51.58;101905.09;4913637;29;8836;-70
2022/03/17 02:03:15;;;;;;;;;5.50;5.50;;;;;18.54;51.52;101924.50;4913649;29;9719;-70
2022/03/17 02:05:40;;;;;;;;;4.00;4.00;;;;;18.51;51.82;101933.31;4914128;29;9857;-71
2022/03/17 02:08:09;;;;;;;;;5.75;5.00;;;;;18.50;51.75;101949.13;4913203;29;9763;-71
2022/03/17 02:13:19;;;;;;;;;5.25;5.25;;;;;18.47;51.89;101960.56;4913120;29;9877;-71
2022/03/17 02:15:53;;;;;;;;;5.75;5.25;;;;;18.47;51.97;101963.22;4912943;29;9864;-70
2022/03/17 02:18:19;;;;;;;;;5.00;5.00;;;;;18.48;52.09;101975.56;4912858;29;9571;-70
2022/03/17 02:20:45;;;;;;;;;6.00;4.75;;;;;18.45;52.01;101972.00;4912594;29;9849;-70
2022/03/17 02:25:57;;;;;;;;;5.00;5.00;;;;;18.45;51.84;101990.50;4912588;29;9529;-71
2022/03/17 02:28:23;;;;;;;;;6.00;6.00;;;;;18.45;51.99;101986.09;4912715;29;9817;-71
2022/03/17 02:30:48;;;;;;;;;4.25;3.50;;;;;18.44;51.78;101986.13;4913090;29;9771;-72
2022/03/17 02:33:16;;;;;;;;;6.75;5.25;;;;;18.42;51.88;101994.03;4913062;29;9680;-71
2022/03/17 02:35:43;;;;;;;;;5.00;5.00;;;;;18.42;51.78;102006.34;4912485;29;8835;-71
2022/03/17 02:38:14;;;;;;;;;6.00;5.00;;;;;18.42;51.79;102009.88;4909843;29;9517;-71
2022/03/17 02:40:42;;;;;;;;;4.00;4.00;;;;;18.41;52.11;102004.59;4915150;29;9617;-71
2022/03/17 02:43:08;;;;;;;;;3.50;3.50;;;;;18.40;51.64;102014.28;4912520;29;9772;-70
2022/03/17 02:45:35;;;;;;;;;7.25;5.50;;;;;18.40;52.11;102016.03;4913210;29;9669;-69
2022/03/17 02:48:01;;;;;;;;;3.50;3.50;;;;;18.40;51.60;102023.97;4912811;29;9926;-70
2022/03/17 02:50:26;;;;;;;;;4.00;3.50;;;;;18.40;51.64;102031.91;4912769;29;10507;-70
2022/03/17 02:52:51;;;;;;;;;3.25;2.25;;;;;18.39;51.58;102040.72;4913123;29;11519;-70
2022/03/17 02:55:17;;;;;;;;;4.50;4.00;;;;;18.40;51.77;102048.66;4916145;29;8796;-69
2022/03/17 02:57:47;;;;;;;;;4.25;4.25;;;;;18.38;51.85;102054.78;4914521;29;8808;-70
2022/03/17 03:00:14;;;;;;;;;3.00;2.25;;;;;18.39;52.00;102051.28;4913417;29;10585;-70
2022/03/17 03:02:40;;;;;;;;;2.00;2.00;;;;;18.35;51.78;102045.09;4913076;29;9746;-71
2022/03/17 03:05:07;;;;;;;;;4.00;3.00;;;;;18.41;52.02;102057.50;4911987;29;9761;-71
2022/03/17 03:07:32;;;;;;;;;3.00;3.00;;;;;18.38;51.96;102068.00;4912977;29;8817;-71
2022/03/17 03:09:58;;;;;;;;;3.00;2.00;;;;;18.38;52.12;102076.84;4911939;29;9649;-71
2022/03/17 03:12:24;;;;;;;;;5.00;4.00;;;;;18.40;51.91;102079.50;4913125;29;8816;-70
2022/03/17 03:14:50;;;;;;;;;2.00;1.00;;;;;18.39;52.49;102091.84;4912964;29;8828;-70
2022/03/17 03:17:16;;;;;;;;;3.00;3.00;;;;;18.37;52.04;102096.22;4912143;29;9025;-70
2022/03/17 03:19:41;;;;;;;;;4.25;2.00;;;;;18.35;52.04;102103.25;4913095;29;9927;-70
2022/03/17 03:22:07;;;;;;;;;1.75;1.75;;;;;18.32;52.15;102106.75;4912436;29;8876;-70
2022/03/17 03:24:33;;;;;;;;;1.50;1.50;;;;;18.33;52.25;102119.09;4912213;29;8934;-70
2022/03/17 03:26:58;;;;;;;;;2.25;2.25;;;;;18.31;52.27;102120.84;4912701;29;8808;-69
2022/03/17 03:29:25;;;;;;;;;1.00;1.00;;;;;18.31;52.18;102126.13;4912698;29;9591;-70
2022/03/17 03:31:55;;;;;;;;;1.50;1.50;;;;;18.33;51.99;102126.16;4912209;29;8867;-70
2022/03/17 03:34:20;;;;;;;;;1.25;1.00;;;;;18.33;51.93;102136.75;4912735;29;9661;-70
2022/03/17 03:39:31;;;;;;;;;2.00;2.00;;;;;18.31;51.84;102159.63;4915733;29;8773;-69
2022/03/17 03:41:57;;;;;;;;;1.25;1.00;;;;;18.28;51.92;102164.88;4916177;29;9464;-70
2022/03/17 03:44:22;;;;;;;;;0.00;0.00;;;;;18.23;52.15;102177.16;4916314;29;9564;-70
2022/03/17 03:46:47;;;;;;;;;1.25;1.25;;;;;18.28;51.91;102181.63;4915497;29;8907;-70
2022/03/17 03:49:13;;;;;;;;;1.25;1.25;;;;;18.25;52.04;102180.72;4915832;29;8816;-70
2022/03/17 03:51:38;;;;;;;;;3.50;2.00;;;;;18.27;52.03;102187.78;4916002;29;9524;-71
2022/03/17 03:54:13;;;;;;;;;2.00;0.00;;;;;18.24;51.72;102195.69;4915190;29;8811;-70
2022/03/17 03:56:49;;;;;;;;;1.00;1.00;;;;;18.27;52.01;102202.75;4916122;29;8878;-70
2022/03/17 03:59:26;;;;;;;;;0.50;0.50;;;;;18.23;51.61;102212.41;4915191;29;10107;-69
2022/03/17 04:01:56;;;;;;;;;1.50;1.50;;;;;18.23;51.96;102215.03;4915640;29;9448;-70
2022/03/17 04:04:23;;;;;;;;;0.33;0.33;;;;;18.21;51.59;102213.25;4915749;29;10208;-70
2022/03/17 04:06:52;;;;;;;;;1.00;1.00;;;;;18.23;51.92;102219.44;4915199;29;9371;-70
2022/03/17 04:09:20;;;;;;;;;1.50;1.00;;;;;18.26;51.56;102241.53;4915594;29;9575;-70
2022/03/17 04:11:46;;;;;;;;;1.00;1.00;;;;;18.21;51.75;102235.31;4915964;29;9436;-71
2022/03/17 04:14:13;;;;;;;;;1.00;0.00;;;;;18.24;52.08;102242.38;4914989;29;9511;-71
2022/03/17 04:16:38;;;;;;;;;1.00;1.00;;;;;18.22;51.71;102252.91;4915783;29;9458;-71
2022/03/17 04:19:04;;;;;;;;;1.00;0.00;;;;;18.21;51.76;102264.38;4915126;29;9572;-70
2022/03/17 04:21:30;;;;;;;;;0.00;0.00;;;;;18.17;51.50;102265.22;4915262;29;8843;-71
2022/03/17 04:23:56;;;;;;;;;0.00;0.00;;;;;18.17;51.45;102265.22;4915351;29;9464;-71
2022/03/17 04:26:22;;;;;;;;;0.25;0.25;;;;;18.18;51.50;102285.47;4915603;29;11583;-71
2022/03/17 04:28:53;;;;;;;;;1.75;1.75;;;;;18.16;51.60;102286.31;4914980;29;9635;-71
2022/03/17 04:31:20;;;;;;;;;0.00;0.00;;;;;18.19;51.65;102289.91;4915365;29;8796;-71
2022/03/17 04:33:46;;;;;;;;;0.75;0.00;;;;;18.14;51.39;102296.00;4914621;29;9442;-71
2022/03/17 04:36:12;;;;;;;;;1.00;1.00;;;;;18.14;51.45;102299.53;4913172;29;9544;-70
2022/03/17 04:38:38;;;;;;;;;1.00;1.00;;;;;18.12;51.39;102303.00;4913565;29;8817;-71
2022/03/17 04:41:04;;;;;;;;;2.00;2.00;;;;;18.12;51.55;102316.22;4915084;29;9583;-70
2022/03/17 04:43:36;;;;;;;;;0.00;0.00;;;;;18.09;51.62;102313.53;4914738;29;9435;-70
2022/03/17 04:46:02;;;;;;;;;0.00;0.00;;;;;18.16;51.02;102333.91;4915047;29;9400;-71
2022/03/17 04:48:27;;;;;;;;;0.50;0.50;;;;;18.16;51.34;102342.72;4912555;29;9374;-71
2022/03/17 04:50:52;;;;;;;;;0.50;0.50;;;;;18.17;50.97;102344.53;4915161;29;8824;-71
2022/03/17 04:53:31;;;;;;;;;2.75;0.00;;;;;18.14;51.57;102352.41;4914904;29;8825;-71
2022/03/17 04:55:58;;;;;;;;;0.00;0.00;;;;;18.13;51.37;102368.22;4914401;29;8878;-71
2022/03/17 04:58:24;;;;;;;;;0.75;0.75;;;;;18.11;51.26;102365.56;4915330;29;9305;-71
2022/03/17 05:00:52;;;;;;;;;0.33;0.33;;;;;18.11;51.14;102380.56;4914726;29;9533;-71
2022/03/17 05:03:17;;;;;;;;;1.25;0.75;;;;;18.15;51.10;102385.00;4913933;29;8852;-71
2022/03/17 05:05:42;;;;;;;;;1.75;1.00;;;;;18.11;51.04;102376.13;4915131;29;9465;-71
2022/03/17 05:08:08;;;;;;;;;0.00;0.00;;;;;18.11;51.15;102399.06;4914552;29;8796;-70
2022/03/17 05:10:37;;;;;;;;;0.67;0.67;;;;;18.06;51.04;102412.19;4914104;29;8821;-71
2022/03/17 05:13:07;;;;;;;;;0.75;0.75;;;;;18.11;50.96;102420.19;4914209;29;8854;-71
2022/03/17 05:15:33;;;;;;;;;0.00;0.00;;;;;18.10;51.00;102427.25;4914311;29;9501;-70
2022/03/17 05:17:58;;;;;;;;;0.00;0.00;;;;;18.13;50.88;102437.84;4913854;29;10168;-70
2022/03/17 05:20:24;;;;;;;;;0.00;0.00;;;;;18.09;50.93;102446.59;4914553;29;9530;-72
2022/03/17 05:22:50;;;;;;;;;0.00;0.00;;;;;18.08;50.96;102450.09;4914600;29;9021;-71
2022/03/17 05:25:16;;;;;;;;;0.00;0.00;;;;;18.11;50.80;102457.22;4913524;29;9423;-71
2022/03/17 05:27:43;;;;;;;;;1.00;0.00;;;;;18.13;50.74;102460.75;4914256;29;9388;-71
2022/03/17 05:30:10;;;;;;;;;0.00;0.00;;;;;18.15;50.76;102473.13;4913986;29;8935;-70
2022/03/17 05:32:36;;;;;;;;;0.50;0.50;;;;;18.12;51.04;102478.34;4913205;29;9448;-70
2022/03/17 05:35:02;;;;;;;;;0.00;0.00;;;;;18.11;50.85;102488.94;4914165;29;9551;-71
2022/03/17 05:37:27;;;;;;;;;2.00;1.00;;;;;18.08;50.81;102500.31;4910754;29;8828;-70
2022/03/17 05:39:53;;;;;;;;;0.33;0.00;;;;;18.07;50.60;102498.53;4913559;29;9572;-70
2022/03/17 05:42:18;;;;;;;;;0.00;0.00;;;;;18.08;50.88;102512.63;4913792;29;8796;-70
2022/03/17 05:44:43;;;;;;;;;0.00;0.00;;;;;18.05;51.14;102508.19;4913515;29;8915;-71
2022/03/17 05:47:09;;;;;;;;;0.50;0.50;;;;;18.04;50.91;102519.63;4913466;29;8793;-70
2022/03/17 05:49:35;;;;;;;;;0.00;0.00;;;;;18.07;50.86;102524.97;4914243;29;8820;-71
2022/03/17 05:52:00;;;;;;;;;0.00;0.00;;;;;18.10;50.99;102521.50;4917071;29;8797;-71
2022/03/17 05:54:25;;;;;;;;;0.00;0.00;;;;;18.05;50.92;102526.69;4914443;29;8983;-71
2022/03/17 05:56:50;;;;;;;;;1.67;0.00;;;;;18.05;50.70;102547.84;4914586;29;8805;-71
2022/03/17 05:59:16;;;;;;;;;1.00;0.00;;;;;18.03;50.76;102544.31;4913122;29;8797;-71
2022/03/17 06:01:41;;;;;;;;;0.00;0.00;;;;;18.05;50.90;102549.59;4913606;29;8931;-71
2022/03/17 06:04:06;;;;;;;;;0.33;0.33;;;;;18.02;50.86;102549.53;4913298;29;8814;-70
2022/03/17 06:06:32;;;;;;;;;0.67;0.00;;;;;17.98;50.52;102556.53;4914005;29;8943;-70
2022/03/17 06:08:57;;;;;;;;;1.00;0.00;;;;;18.04;50.67;102564.56;4919216;29;8840;-71
2022/03/17 06:11:22;;;;;;;;;0.00;0.00;;;;;18.02;50.78;102568.94;4914612;29;8804;-71
2022/03/17 06:13:48;;;;;;;;;1.75;1.75;;;;;18.02;50.82;102566.31;4913288;29;8805;-71
2022/03/17 06:16:13;;;;;;;;;0.00;0.00;;;;;18.02;50.82;102575.97;4913666;29;9178;-71
2022/03/17 06:18:40;;;;;;;;;0.00;0.00;;;;;18.01;50.65;102585.66;4913544;29;8805;-71
2022/03/17 06:21:05;;;;;;;;;0.00;0.00;;;;;17.96;50.42;102583.81;4912842;29;8843;-71
2022/03/17 06:23:31;;;;;;;;;0.00;0.00;;;;;17.98;50.65;102597.91;4913734;29;9292;-71
2022/03/17 06:25:56;;;;;;;;;0.00;0.00;;;;;18.01;50.46;102608.53;4913125;29;8789;-70
2022/03/17 06:28:21;;;;;;;;;0.00;0.00;;;;;18.02;50.35;102611.22;4912664;29;8841;-70
2022/03/17 06:30:47;;;;;;;;;0.00;0.00;;;;;18.00;50.76;102612.03;4913752;29;8816;-70
2022/03/17 06:33:14;;;;;;;;;0.00;0.00;;;;;18.02;50.40;102629.72;4912679;29;8812;-70
2022/03/17 06:35:40;;;;;;;;;0.00;0.00;;;;;17.98;50.44;102637.56;4912766;29;8887;-71
2022/03/17 06:38:07;;;;;;;;;0.00;0.00;;;;;17.99;50.18;102636.72;4909741;29;9485;-70
2022/03/17 06:40:33;;;;;;;;;0.00;0.00;;;;;17.94;50.21;102649.81;4913193;29;9561;-71
2022/03/17 06:42:58;;;;;;;;;0.00;0.00;;;;;17.93;50.33;102653.31;4912246;29;9332;-70
2022/03/17 06:45:25;;;;;;;;;0.50;0.50;;;;;17.96;50.39;102657.81;4912932;29;11735;-71
2022/03/17 06:47:50;;;;;;;;;0.33;0.00;;;;;17.95;50.25;102654.25;4912536;29;8816;-71
2022/03/17 06:50:17;;;;;;;;;0.00;0.00;;;;;17.95;50.04;102656.91;4913189;29;9445;-71
2022/03/17 06:52:43;;;;;;;;;0.25;0.00;;;;;17.91;50.09;102659.44;4912991;29;8840;-71
2022/03/17 06:55:09;;;;;;;;;0.00;0.00;;;;;17.95;50.15;102672.75;4912369;29;9398;-71
2022/03/17 06:57:35;;;;;;;;;0.00;0.00;;;;;17.96;49.88;102676.28;4913013;29;8800;-71
2022/03/17 07:00:08;;;;;;;;;0.00;0.00;;;;;18.13;51.51;102686.34;4912921;29;9375;-74
2022/03/17 07:02:34;;;;;;;;;0.00;0.00;;;;;18.26;50.95;102690.09;4912238;29;8844;-78
2022/03/17 07:04:59;;;;;;;;;1.00;0.67;;;;;18.28;52.20;102685.75;4913363;29;9454;-79
2022/03/17 07:07:24;;;;;;;;;0.00;0.00;;;;;18.34;54.63;102707.91;4913318;29;8844;-81
2022/03/17 07:09:50;;;;;;;;;1.00;1.00;;;;;18.40;55.99;102709.78;4912719;29;8800;-78
2022/03/17 07:12:15;;;;;;;;;1.50;0.50;;;;;18.44;55.99;102709.00;4916375;29;8821;-77
2022/03/17 07:14:41;;;;;;;;;0.25;0.00;;;;;18.60;57.83;102710.19;4917049;29;8820;-74
2022/03/17 07:17:07;;;;;;;;;1.00;1.00;;;;;18.70;59.60;102710.41;4916136;29;8828;-75
2022/03/17 07:19:32;;;;;;;;;1.75;1.50;;;;;18.75;60.59;102726.34;4916627;29;8827;-72
2022/03/17 07:21:58;;;;;;;;;2.75;1.25;;;;;18.78;63.50;102721.97;4916287;29;9471;-72
2022/03/17 07:24:23;;;;;;;;;1.00;0.00;;;;;18.77;63.01;102733.47;4916122;29;8797;-73
2022/03/17 07:26:49;;;;;;;;;4.75;2.75;;;;;18.60;66.27;102750.75;4916537;29;8791;-73
2022/03/17 07:29:14;;;;;;;;;2.00;1.00;;;;;18.46;64.10;102752.22;4916400;29;8796;-73
2022/03/17 07:31:39;;;;;;;;;1.00;0.00;;;;;18.27;62.93;102755.34;4915761;29;8825;-71
2022/03/17 07:34:07;;;;;;;;;3.25;1.25;;;;;18.07;61.23;102751.41;4903012;29;8835;-70
2022/03/17 07:36:32;;;;;;;;;2.00;1.75;;;;;17.62;59.80;102756.56;4909904;29;8974;-69
2022/03/17 07:38:58;;;;;;;;;2.00;1.00;;;;;17.48;58.78;102769.41;4915391;29;9554;-69
2022/03/17 07:41:24;;;;;;;;;1.00;1.00;;;;;17.35;57.02;102777.91;4914690;29;8844;-70
2022/03/17 07:43:50;;;;;;;;;2.00;0.50;;;;;17.13;56.27;102787.03;4916113;29;11827;-69
2022/03/17 07:46:16;;;;;;;;;1.25;1.00;;;;;17.16;54.87;102787.09;4914799;29;9543;-69
2022/03/17 07:48:41;;;;;;;;;0.00;0.00;;;;;17.02;54.69;102787.59;4915942;29;8801;-70
2022/03/17 07:51:08;;;;;;;;;1.00;1.00;;;;;17.37;52.87;102798.19;4913225;29;8829;-71
2022/03/17 07:53:34;;;;;;;;;0.50;0.25;;;;;17.46;52.73;102786.97;4916052;29;8796;-70
2022/03/17 07:55:59;;;;;;;;;0.50;0.00;;;;;17.45;52.67;102795.75;4915294;29;9394;-70
2022/03/17 07:58:26;;;;;;;;;1.00;1.00;;;;;17.33;51.95;102791.03;4915178;29;8835;-71
2022/03/17 08:00:53;;;;;;;;;0.50;0.50;;;;;17.42;51.74;102800.06;4914103;29;8828;-70
2022/03/17 08:03:19;;;;;;;;;1.25;0.00;;;;;17.47;51.35;102807.22;4915308;29;9731;-70
2022/03/17 08:05:48;;;;;;;;;1.00;0.25;;;;;17.53;50.34;102817.06;4914916;29;9511;-70
2022/03/17 08:08:17;;;;;;;;;1.00;1.00;;;;;17.46;50.45;102828.31;4915310;29;9471;-72
2022/03/17 08:10:43;;;;;;;;;1.00;0.25;;;;;17.39;49.99;102844.03;4912916;29;9324;-70
2022/03/17 08:13:11;;;;;;;;;0.75;0.75;;;;;17.45;49.76;102853.84;4914535;29;9423;-71
2022/03/17 08:15:39;;;;;;;;;0.75;0.00;;;;;17.46;49.07;102850.34;4915178;29;8819;-70
2022/03/17 08:18:06;;;;;;;;;0.75;0.50;;;;;17.25;48.79;102863.88;4914329;29;9523;-70
2022/03/17 08:20:32;;;;;;;;;0.00;0.00;;;;;17.12;48.26;102864.41;4905844;29;10159;-70
2022/03/17 08:22:57;;;;;;;;;0.00;0.00;;;;;16.96;48.07;102875.41;4894837;29;9301;-71
2022/03/17 08:25:23;;;;;;;;;1.00;0.00;;;;;16.85;47.92;102871.56;4895869;29;8815;-71
2022/03/17 08:27:51;;;;;;;;;0.00;0.00;;;;;16.92;47.74;102877.06;4895105;29;8822;-71
2022/03/17 08:30:17;;;;;;;;;1.00;1.00;;;;;17.32;47.38;102886.94;4899596;29;8828;-71
2022/03/17 08:32:42;;;;;;;;;1.00;1.00;;;;;17.45;46.76;102890.81;4914265;29;9261;-71
2022/03/17 08:35:09;;;;;;;;;0.00;0.00;;;;;17.04;46.85;102896.72;4914128;29;9529;-71
2022/03/17 08:37:42;;;;;;;;;0.50;0.00;;;;;17.10;46.48;102902.16;4911267;29;9050;-69
2022/03/17 08:40:09;;;;;;;;;1.00;1.00;;;;;17.03;46.64;102916.94;4910565;29;10377;-70
2022/03/17 08:42:35;;;;;;;;;1.00;0.00;;;;;17.13;45.94;102913.72;4913393;29;9517;-70
2022/03/17 08:45:00;;;;;;;;;0.25;0.00;;;;;17.22;46.03;102924.50;4914429;29;9467;-70
2022/03/17 08:50:09;;;;;;;;;0.00;0.00;;;;;17.41;45.94;102933.81;4897644;29;8820;-71
2022/03/17 08:52:35;;;;;;;;;0.00;0.00;;;;;17.11;46.01;102933.88;4914811;29;9461;-72
2022/03/17 08:55:00;;;;;;;;;0.00;0.00;;;;;17.29;45.82;102939.66;4913900;29;8812;-70
2022/03/17 08:57:25;;;;;;;;;2.00;0.00;;;;;17.05;45.71;102946.03;4914116;29;8961;-71
2022/03/17 08:59:52;;;;;;;;;0.00;0.00;;;;;16.93;46.01;102957.13;4913003;29;8851;-71
2022/03/17 09:02:20;;;;;;;;;0.00;0.00;;;;;17.10;45.42;102962.84;4920362;29;8836;-70
2022/03/17 09:04:45;;;;;;;;;0.00;0.00;;;;;16.87;45.53;102971.00;4915689;29;9585;-70
2022/03/17 09:07:11;;;;;;;;;1.00;1.00;;;;;16.86;45.71;102978.91;4903805;29;9491;-71
2022/03/17 09:09:38;;;;;;;;;0.00;0.00;;;;;16.87;45.19;102967.50;4894399;29;8890;-71
2022/03/17 09:12:09;;;;;;;;;0.00;0.00;;;;;17.00;45.13;102974.00;4913745;29;9444;-71
2022/03/17 09:14:36;;;;;;;;;0.25;0.00;;;;;17.08;44.69;102976.03;4914986;29;9478;-70
2022/03/17 09:17:04;;;;;;;;;0.00;0.00;;;;;17.06;44.50;102974.22;4909574;29;9539;-71
2022/03/17 09:19:30;;;;;;;;;0.00;0.00;;;;;17.19;44.74;102982.50;4897222;29;9385;-70
2022/03/17 09:21:56;;;;;;;;;0.00;0.00;;;;;17.42;44.32;102991.09;4912100;29;9512;-72
2022/03/17 09:24:21;;;;;;;;;2.00;1.00;;;;;17.42;44.05;102992.81;4914136;29;8805;-71
2022/03/17 09:26:47;;;;;;;;;0.67;0.67;;;;;17.39;44.61;102983.97;4907671;29;9404;-70
2022/03/17 09:29:12;;;;;;;;;0.00;0.00;;;;;17.44;44.33;102989.34;4894964;29;8851;-72
2022/03/17 09:31:37;;;;;;;;;4.00;0.00;;;;;17.31;44.27;102996.06;4908944;29;8828;-72
2022/03/17 09:34:04;;;;;;;;;0.00;0.00;;;;;17.57;44.33;102995.91;4913863;29;9631;-72
2022/03/17 09:36:29;;;;;;;;;0.25;0.25;;;;;17.68;44.00;103011.22;4910195;29;8818;-72
2022/03/17 09:41:38;;;;;;;;;0.00;0.00;;;;;17.51;43.96;103014.22;4911454;29;8927;-71
2022/03/17 09:44:04;;;;;;;;;0.00;0.00;;;;;17.33;44.97;103025.13;4913090;29;9565;-71
2022/03/17 09:46:31;;;;;;;;;0.00;0.00;;;;;17.49;44.48;103035.28;4913882;29;9584;-72
2022/03/17 09:48:57;;;;;;;;;1.50;1.00;;;;;17.44;44.61;103043.91;4913575;29;8916;-72
2022/03/17 09:51:24;;;;;;;;;1.00;0.00;;;;;17.44;44.46;103059.75;4898087;29;9473;-72
2022/03/17 09:53:53;;;;;;;;;1.25;0.50;;;;;17.31;44.30;103048.88;4894756;29;8811;-73
2022/03/17 09:56:26;;;;;;;;;0.00;0.00;;;;;17.45;44.38;103053.63;4894522;29;9513;-72
2022/03/17 09:58:53;;;;;;;;;0.75;0.75;;;;;17.50;43.97;103054.69;4893961;29;9317;-72
2022/03/17 10:01:19;;;;;;;;;1.75;0.75;;;;;17.54;44.52;103057.47;4905977;29;9397;-71
2022/03/17 10:03:46;;;;;;;;;0.00;0.00;;;;;17.48;44.31;103056.38;4913490;29;9657;-71
2022/03/17 10:06:15;;;;;;;;;0.75;0.75;;;;;17.51;43.96;103070.56;4907970;29;9313;-71
2022/03/17 10:08:48;;;;;;;;;0.25;0.00;;;;;17.47;44.18;103073.94;4893307;29;9587;-72
2022/03/17 10:11:24;;;;;;;;;0.00;0.00;;;;;17.56;43.78;103078.63;4894596;29;9567;-71
2022/03/17 10:13:54;;;;;;;;;1.33;1.00;;;;;17.63;43.92;103093.81;4893282;29;9380;-72
2022/03/17 10:16:20;;;;;;;;;0.00;0.00;;;;;17.82;43.39;103094.38;4894866;29;9352;-71
2022/03/17 10:18:55;;;;;;;;;1.75;1.00;;;;;17.57;43.91;103096.28;4894280;29;9382;-72
2022/03/17 10:21:27;;;;;;;;;0.00;0.00;;;;;17.46;44.47;103097.69;4894416;29;9657;-72
2022/03/17 10:24:04;;;;;;;;;0.75;0.75;;;;;17.76;43.46;103103.91;4892948;29;9579;-71
2022/03/17 10:26:54;;;;;;;;;1.00;1.00;;;;;17.73;43.92;103112.59;4894175;29;9384;-72
2022/03/17 10:29:22;;;;;;;;;0.33;0.33;;;;;17.67;43.71;103115.09;4899750;29;9380;-72
2022/03/17 10:31:50;;;;;;;;;0.00;0.00;;;;;17.73;43.94;103127.59;4912965;29;9403;-72
2022/03/17 10:34:17;;;;;;;;;1.00;0.00;;;;;17.75;43.31;103117.94;4893998;29;9479;-72
2022/03/17 10:36:45;;;;;;;;;0.00;0.00;;;;;17.86;43.67;103133.25;4899306;29;9400;-72
2022/03/17 10:39:12;;;;;;;;;0.00;0.00;;;;;17.78;43.56;103140.06;4908586;29;9374;-72
2022/03/17 10:41:46;;;;;;;;;1.25;0.50;;;;;17.70;43.70;103159.19;4893727;29;9461;-73
2022/03/17 10:44:13;;;;;;;;;0.00;0.00;;;;;17.78;43.62;103168.22;4892864;29;9607;-72
2022/03/17 10:46:54;;;;;;;;;1.00;1.00;;;;;17.69;43.47;103171.53;4893423;29;9585;-72
2022/03/17 10:49:19;;;;;;;;;1.00;0.50;;;;;17.88;43.57;103180.88;4903854;29;9640;-74
2022/03/17 10:51:45;;;;;;;;;0.00;0.00;;;;;17.88;43.68;103184.41;4912523;29;9782;-73
2022/03/17 10:54:15;;;;;;;;;4.00;2.00;;;;;17.98;43.31;103187.31;4911951;29;8911;-73
2022/03/17 10:56:42;;;;;;;;;1.00;1.00;;;;;18.10;43.83;103191.22;4913141;29;8810;-74
2022/03/17 10:59:08;;;;;;;;;1.00;0.75;;;;;18.11;43.69;103184.19;4912714;29;9439;-74
2022/03/17 11:01:35;;;;;;;;;0.00;0.00;;;;;18.14;43.73;103181.63;4912594;29;9696;-72
2022/03/17 11:04:02;;;;;;;;;1.00;1.00;;;;;18.11;43.84;103189.47;4913240;29;9657;-73
2022/03/17 11:06:28;;;;;;;;;1.00;1.00;;;;;18.11;43.92;103184.19;4913511;29;9367;-74
2022/03/17 11:08:53;;;;;;;;;0.00;0.00;;;;;18.13;43.97;103188.66;4912723;29;9548;-74
2022/03/17 11:11:19;;;;;;;;;1.00;1.00;;;;;18.17;43.94;103186.97;4912850;29;9607;-74
2022/03/17 11:13:46;;;;;;;;;2.50;1.00;;;;;18.14;44.35;103192.19;4912673;29;8911;-73
2022/03/17 11:16:14;;;;;;;;;0.00;0.00;;;;;18.14;44.44;103193.09;4911343;29;8820;-73
2022/03/17 11:18:41;;;;;;;;;0.00;0.00;;;;;18.15;44.34;103191.31;4912666;29;9581;-74
2022/03/17 11:21:25;;;;;;;;;1.75;1.00;;;;;18.18;44.31;103191.44;4912768;29;9553;-75
2022/03/17 11:23:59;;;;;;;;;0.00;0.00;;;;;18.11;44.67;103198.25;4912350;29;9446;-73
2022/03/17 11:26:29;;;;;;;;;1.00;0.00;;;;;18.17;44.74;103206.38;4912610;29;9451;-74
2022/03/17 11:29:03;;;;;;;;;1.00;0.25;;;;;18.15;44.62;103205.44;4912721;29;9469;-73
2022/03/17 11:31:30;;;;;;;;;1.00;0.00;;;;;18.21;44.59;103210.91;4912225;29;10215;-73
2022/03/17 11:33:59;;;;;;;;;1.00;0.00;;;;;18.22;44.59;103201.25;4912555;29;9366;-72
2022/03/17 11:36:24;;;;;;;;;1.00;1.00;;;;;18.24;44.41;103205.69;4909606;29;9370;-73
2022/03/17 11:38:58;;;;;;;;;0.75;0.75;;;;;18.27;44.82;103203.13;4912453;29;9402;-73
2022/03/17 11:41:24;;;;;;;;;3.00;1.00;;;;;18.28;44.48;103204.03;4912960;29;8836;-73
2022/03/17 11:43:49;;;;;;;;;2.00;1.00;;;;;18.27;44.74;103202.25;4911792;29;9418;-73
2022/03/17 11:46:17;;;;;;;;;0.00;0.00;;;;;18.31;44.74;103205.03;4912179;29;8824;-74